createdAt,value
2023-03-07T00:00:13.396Z,98606.16
2023-03-07T00:05:17.095Z,98614.34
2023-03-07T00:10:20.201Z,98593.47
2023-03-07T00:15:24.679Z,98596.03
2023-03-07T00:20:27.609Z,98588.59
2023-03-07T00:25:30.452Z,98583.78
2023-03-07T00:30:34.698Z,98570.94
2023-03-07T00:35:37.503Z,98570.25
2023-03-07T00:40:40.331Z,98545.69
2023-03-07T00:45:44.551Z,98541.78
2023-03-07T00:50:48.025Z,98538.81
2023-03-07T00:55:59.505Z,98528.53
2023-03-07T01:01:04.954Z,98530.34
2023-03-07T01:06:10.098Z,98508.44
2023-03-07T01:11:14.102Z,98515.72
2023-03-07T01:16:20.522Z,98495.00
2023-03-07T01:21:24.538Z,98490.84
2023-03-07T01:26:29.230Z,98486.13
2023-03-07T01:31:33.585Z,98479.00
2023-03-07T01:36:38.547Z,98470.59
2023-03-07T01:41:42.800Z,98471.75
2023-03-07T01:46:53.507Z,98486.50
2023-03-07T01:52:04.032Z,98473.00
2023-03-07T01:57:07.638Z,98457.00
2023-03-07T02:02:17.035Z,98465.00
2023-03-07T02:07:23.388Z,98463.59
2023-03-07T02:12:26.344Z,98455.47
2023-03-07T02:17:31.215Z,98445.38
2023-03-07T02:22:35.199Z,98455.09
2023-03-07T02:27:40.946Z,98444.75
2023-03-07T02:32:44.213Z,98424.75
2023-03-07T02:37:50.964Z,98423.03
2023-03-07T02:43:01.690Z,98419.75
2023-03-07T02:48:05.054Z,98423.75
2023-03-07T02:53:08.014Z,98418.72
2023-03-07T02:58:12.391Z,98416.47
2023-03-07T03:03:15.307Z,98413.59
2023-03-07T03:08:18.388Z,98425.97
2023-03-07T03:13:22.770Z,98412.94
2023-03-07T03:18:28.286Z,98391.84
2023-03-07T03:23:31.246Z,98390.63
2023-03-07T03:28:35.995Z,98384.59
2023-03-07T03:33:39.366Z,98375.94
2023-03-07T03:38:42.594Z,98391.13
2023-03-07T03:43:47.471Z,98369.25
2023-03-07T03:48:55.189Z,98365.63
2023-03-07T03:54:01.004Z,98361.66
2023-03-07T03:59:05.570Z,98409.38
2023-03-07T04:04:08.454Z,98365.97
2023-03-07T04:09:12.888Z,98356.81
2023-03-07T04:14:19.921Z,98362.34
2023-03-07T04:19:22.968Z,98369.19
2023-03-07T04:24:26.835Z,98362.47
2023-03-07T04:29:31.265Z,98371.88
2023-03-07T04:34:39.814Z,98352.13
2023-03-07T04:39:42.738Z,98362.34
2023-03-07T04:44:48.069Z,98364.03
2023-03-07T04:49:50.906Z,98366.19
2023-03-07T04:54:53.771Z,98359.53
2023-03-07T04:59:58.028Z,98353.06
2023-03-07T05:05:01.468Z,98332.41
2023-03-07T05:10:04.819Z,98365.31
2023-03-07T05:15:10.436Z,98367.66
2023-03-07T05:20:13.366Z,98358.00
2023-03-07T05:25:17.737Z,98354.78
2023-03-07T05:30:22.778Z,98356.13
2023-03-07T05:35:25.797Z,98361.75
2023-03-07T05:40:30.783Z,98366.91
2023-03-07T05:45:35.187Z,98365.81
2023-03-07T05:50:38.563Z,98368.38
2023-03-07T05:55:41.544Z,98374.25
2023-03-07T06:00:46.043Z,98382.50
2023-03-07T06:05:50.931Z,98363.84
2023-03-07T06:10:55.495Z,98368.63
2023-03-07T06:16:00.736Z,98366.38
2023-03-07T06:21:06.190Z,98377.50
2023-03-07T06:26:14.924Z,98363.75
2023-03-07T06:31:21.771Z,98348.78
2023-03-07T06:36:24.667Z,98362.53
2023-03-07T06:41:34.082Z,98346.50
2023-03-07T06:46:40.767Z,98351.97
2023-03-07T06:51:49.033Z,98363.34
2023-03-07T06:56:53.247Z,98360.72
2023-03-07T07:02:02.598Z,98370.78
2023-03-07T07:07:07.100Z,98366.69
2023-03-07T07:12:10.573Z,98365.53
2023-03-07T07:17:15.001Z,98364.72
2023-03-07T07:22:18.642Z,98372.28
2023-03-07T07:27:21.594Z,98373.84
2023-03-07T07:32:26.449Z,98361.75
2023-03-07T07:37:29.619Z,98364.72
2023-03-07T07:42:32.543Z,98362.03
2023-03-07T07:47:54.061Z,98370.94
2023-03-07T07:52:58.362Z,98386.59
2023-03-07T07:58:01.216Z,98390.81
2023-03-07T08:03:05.606Z,98399.59
2023-03-07T08:08:08.421Z,98415.44
2023-03-07T08:13:13.611Z,98406.63
2023-03-07T08:18:17.782Z,98399.91
2023-03-07T08:23:20.601Z,98401.75
2023-03-07T08:28:23.388Z,98405.16
2023-03-07T08:33:27.521Z,98403.97
2023-03-07T08:38:30.375Z,98403.00
2023-03-07T08:43:34.627Z,98406.53
2023-03-07T08:48:38.817Z,98412.56
2023-03-07T08:53:43.011Z,98407.16
2023-03-07T08:58:46.203Z,98419.22
2023-03-07T09:03:50.566Z,98413.84
2023-03-07T09:08:53.424Z,98412.72
2023-03-07T09:13:56.232Z,98408.31
2023-03-07T09:19:00.397Z,98405.03
2023-03-07T09:24:04.145Z,98407.22
2023-03-07T09:29:06.950Z,98413.91
2023-03-07T09:34:11.755Z,98415.06
2023-03-07T09:39:15.472Z,98415.59
2023-03-07T09:44:24.740Z,98418.63
2023-03-07T09:49:55.641Z,98425.31
2023-03-07T09:55:01.639Z,98419.50
2023-03-07T10:00:12.333Z,98423.81
2023-03-07T10:05:28.155Z,98426.88
2023-03-07T10:10:37.895Z,98426.78
2023-03-07T10:15:46.578Z,98432.84
2023-03-07T10:20:54.972Z,98420.78
2023-03-07T10:26:03.128Z,98431.88
2023-03-07T10:31:16.516Z,98425.94
2023-03-07T10:36:23.065Z,98431.75
2023-03-07T10:41:25.989Z,98430.69
2023-03-07T10:46:31.488Z,98426.69
2023-03-07T10:51:50.613Z,98428.25
2023-03-07T10:57:08.608Z,98435.13
2023-03-07T11:02:31.315Z,98428.56
2023-03-07T11:07:37.365Z,98431.00
2023-03-07T11:12:47.129Z,98437.34
2023-03-07T11:17:51.734Z,98426.66
2023-03-07T11:23:15.818Z,98429.31
2023-03-07T11:28:31.332Z,98431.97
2023-03-07T11:33:58.476Z,98424.81
2023-03-07T11:39:12.094Z,98425.19
2023-03-07T11:44:23.352Z,98422.31
2023-03-07T11:49:40.249Z,98433.94
2023-03-07T11:54:55.670Z,98441.19
2023-03-07T12:00:23.733Z,98443.22
2023-03-07T12:05:39.280Z,98445.88
2023-03-07T12:10:55.296Z,98446.91
2023-03-07T12:16:08.417Z,98444.72
2023-03-07T12:21:24.718Z,98448.03
2023-03-07T12:26:37.289Z,98448.63
2023-03-07T12:31:44.202Z,98435.22
2023-03-07T12:36:51.067Z,98441.19
2023-03-07T12:42:03.702Z,98447.97
2023-03-07T12:47:16.639Z,98446.38
2023-03-07T12:52:30.738Z,98452.38
2023-03-07T12:57:41.262Z,98457.81
2023-03-07T13:02:48.378Z,98445.97
2023-03-07T13:07:51.795Z,98449.44
2023-03-07T13:12:56.035Z,98439.66
2023-03-07T13:18:00.626Z,98442.22
2023-03-07T13:23:29.386Z,98430.72
2023-03-07T13:28:36.857Z,98433.09
2023-03-07T13:33:39.778Z,98434.00
2023-03-07T13:38:44.148Z,98432.22
2023-03-07T13:44:01.432Z,98431.94
2023-03-07T13:49:04.435Z,98439.28
2023-03-07T13:54:12.793Z,98428.28
2023-03-07T13:59:24.526Z,98431.31
2023-03-07T14:04:39.968Z,98437.06
2023-03-07T14:09:47.981Z,98429.69
2023-03-07T14:15:06.106Z,98430.84
2023-03-07T14:20:18.145Z,98433.06
2023-03-07T14:25:25.100Z,98431.34
2023-03-07T14:30:32.182Z,98436.53
2023-03-07T14:35:37.204Z,98447.41
2023-03-07T14:40:53.279Z,98443.94
2023-03-07T14:46:06.324Z,98448.97
2023-03-07T14:51:15.612Z,98458.59
2023-03-07T14:56:22.982Z,98440.72
2023-03-07T15:01:31.597Z,98434.03
2023-03-07T15:06:43.785Z,98435.06
2023-03-07T15:11:52.174Z,98449.56
2023-03-07T15:17:01.450Z,98453.13
2023-03-07T15:22:07.375Z,98465.28
2023-03-07T15:27:15.013Z,98464.41
2023-03-07T15:32:34.422Z,98471.44
2023-03-07T15:37:51.512Z,98480.44
2023-03-07T15:42:56.322Z,98492.63
2023-03-07T15:48:03.367Z,98492.22
2023-03-07T15:53:09.667Z,98496.91
2023-03-07T15:58:15.496Z,98500.59
2023-03-07T16:03:26.211Z,98512.75
2023-03-07T16:08:29.267Z,98521.22
2023-03-07T16:13:34.096Z,98523.22
2023-03-07T16:18:38.362Z,98519.75
2023-03-07T16:23:41.343Z,98524.69
2023-03-07T16:28:45.578Z,98526.28
2023-03-07T16:33:50.195Z,98535.91
2023-03-07T16:38:53.101Z,98529.78
2023-03-07T16:43:57.837Z,98525.03
2023-03-07T16:49:02.034Z,98524.06
2023-03-07T16:54:04.982Z,98536.56
2023-03-07T16:59:08.415Z,98541.72
2023-03-07T17:04:12.720Z,98539.91
2023-03-07T17:09:15.843Z,98555.34
2023-03-07T17:14:20.056Z,98558.41
2023-03-07T17:19:27.005Z,98557.06
2023-03-07T17:24:31.061Z,98570.16
2023-03-07T17:29:39.293Z,98582.44
2023-03-07T17:34:43.818Z,98583.56
2023-03-07T17:39:46.648Z,98585.47
2023-03-07T17:44:49.481Z,98594.31
2023-03-07T17:49:53.733Z,98601.88
2023-03-07T17:54:56.561Z,98602.88
2023-03-07T17:59:59.349Z,98617.19
2023-03-07T18:05:03.648Z,98618.69
2023-03-07T18:10:08.857Z,98621.19
2023-03-07T18:15:14.851Z,98628.56
2023-03-07T18:20:21.617Z,98623.66
2023-03-07T18:25:25.698Z,98636.91
2023-03-07T18:30:28.617Z,98628.09
2023-03-07T18:35:37.116Z,98637.81
2023-03-07T18:40:40.052Z,98643.97
2023-03-07T18:45:43.913Z,98639.88
2023-03-07T18:50:56.695Z,98644.00
2023-03-07T18:56:03.463Z,98649.03
2023-03-07T19:01:14.212Z,98657.44
2023-03-07T19:06:20.901Z,98659.28
2023-03-07T19:11:23.698Z,98670.97
2023-03-07T19:16:28.392Z,98666.81
2023-03-07T19:21:32.986Z,98679.72
2023-03-07T19:26:35.825Z,98683.47
2023-03-07T19:31:38.800Z,98689.91
2023-03-07T19:36:43.108Z,98692.41
2023-03-07T19:41:47.925Z,98695.44
2023-03-07T19:46:50.740Z,98701.50
2023-03-07T19:51:54.916Z,98706.94
2023-03-07T19:56:57.771Z,98711.09
2023-03-07T20:02:00.546Z,98700.31
2023-03-07T20:07:04.742Z,98712.97
2023-03-07T20:12:10.008Z,98714.19
2023-03-07T20:17:13.336Z,98730.69
2023-03-07T20:22:18.176Z,98723.53
2023-03-07T20:27:23.356Z,98726.91
2023-03-07T20:32:26.215Z,98730.69
2023-03-07T20:37:32.452Z,98727.56
2023-03-07T20:42:35.205Z,98732.19
2023-03-07T20:47:38.436Z,98738.59
2023-03-07T20:52:42.681Z,98747.34
2023-03-07T20:57:45.925Z,98754.34
2023-03-07T21:03:00.068Z,98756.38
2023-03-07T21:08:09.908Z,98755.66
2023-03-07T21:13:13.259Z,98756.50
2023-03-07T21:18:16.057Z,98766.59
2023-03-07T21:23:20.214Z,98766.28
2023-03-07T21:28:22.872Z,98779.97
2023-03-07T21:33:25.577Z,98778.63
2023-03-07T21:38:30.990Z,98773.34
2023-03-07T21:43:33.814Z,98785.03
2023-03-07T21:48:37.228Z,98778.94
2023-03-07T21:53:41.321Z,98787.84
2023-03-07T21:58:44.606Z,98778.44
2023-03-07T22:03:48.119Z,98792.59
2023-03-07T22:08:52.533Z,98802.47
2023-03-07T22:13:55.323Z,98800.22
2023-03-07T22:18:58.456Z,98808.41
2023-03-07T22:24:02.506Z,98801.72
2023-03-07T22:29:05.868Z,98809.72
2023-03-07T22:34:08.599Z,98825.28
2023-03-07T22:39:12.671Z,98818.59
2023-03-07T22:44:15.920Z,98818.00
2023-03-07T22:49:18.706Z,98815.38
2023-03-07T22:54:22.911Z,98822.09
2023-03-07T22:59:25.645Z,98820.47
2023-03-07T23:04:30.473Z,98812.28
2023-03-07T23:09:34.907Z,98817.38
2023-03-07T23:14:38.564Z,98820.28
2023-03-07T23:19:41.311Z,98809.28
2023-03-07T23:24:45.507Z,98822.75
2023-03-07T23:29:48.331Z,98828.03
2023-03-07T23:34:51.148Z,98815.66
2023-03-07T23:39:55.238Z,98821.25
2023-03-07T23:44:58.062Z,98833.56
2023-03-07T23:50:00.908Z,98841.78
2023-03-07T23:55:05.329Z,98839.03
